sensor_id;sensor_type;location;lat;lon;timestamp;pressure;altitude;pressure_sealevel;temperature;humidity
28354;BME280;15603;50.878;8.036;2023-06-14T00:01:59;146898.50;;;15.36;69.24
28354;BME280;15603;50.878;8.036;2023-06-14T00:04:26;146863.19;;;15.21;70.90
28354;BME280;15603;50.878;8.036;2023-06-14T00:06:54;146875.34;;;15.26;70.61
28354;BME280;15603;50.878;8.036;2023-06-14T00:09:23;146816.84;;;15.01;70.40
28354;BME280;15603;50.878;8.036;2023-06-14T00:11:50;146887.53;;;15.31;69.92
28354;BME280;15603;50.878;8.036;2023-06-14T00:14:17;146877.78;;;15.27;69.95
28354;BME280;15603;50.878;8.036;2023-06-14T00:16:45;146874.13;;;15.25;70.18
28354;BME280;15603;50.878;8.036;2023-06-14T00:19:12;146799.78;;;14.94;72.12
28354;BME280;15603;50.878;8.036;2023-06-14T00:21:40;146848.56;;;15.15;71.62
28354;BME280;15603;50.878;8.036;2023-06-14T00:24:07;146842.44;;;15.12;71.96
28354;BME280;15603;50.878;8.036;2023-06-14T00:26:35;146841.22;;;15.11;72.12
28354;BME280;15603;50.878;8.036;2023-06-14T00:29:03;146821.72;;;15.03;71.42
28354;BME280;15603;50.878;8.036;2023-06-14T00:31:30;146798.56;;;14.94;72.87
28354;BME280;15603;50.878;8.036;2023-06-14T00:33:57;146802.19;;;14.95;73.04
28354;BME280;15603;50.878;8.036;2023-06-14T00:36:24;146769.28;;;14.81;72.54
28354;BME280;15603;50.878;8.036;2023-06-14T00:38:52;146818.06;;;15.02;72.56
28354;BME280;15603;50.878;8.036;2023-06-14T00:41:19;146816.84;;;15.01;72.84
28354;BME280;15603;50.878;8.036;2023-06-14T00:43:50;146797.31;;;14.93;74.04
28354;BME280;15603;50.878;8.036;2023-06-14T00:46:17;146777.81;;;14.85;73.68
28354;BME280;15603;50.878;8.036;2023-06-14T00:48:47;146786.34;;;14.88;74.23
28354;BME280;15603;50.878;8.036;2023-06-14T00:51:14;146787.56;;;14.89;74.93
28354;BME280;15603;50.878;8.036;2023-06-14T00:53:42;146810.72;;;14.99;72.06
28354;BME280;15603;50.878;8.036;2023-06-14T00:56:14;146743.72;;;14.70;71.60
28354;BME280;15603;50.878;8.036;2023-06-14T00:58:41;146777.81;;;14.85;75.20
28354;BME280;15603;50.878;8.036;2023-06-14T01:01:10;146811.97;;;14.99;71.88
28354;BME280;15603;50.878;8.036;2023-06-14T01:03:37;146807.06;;;14.97;70.49
28354;BME280;15603;50.878;8.036;2023-06-14T01:06:21;146753.47;;;14.75;73.52
28354;BME280;15603;50.878;8.036;2023-06-14T01:11:59;146682.69;;;14.45;75.57
28354;BME280;15603;50.878;8.036;2023-06-14T01:14:30;146643.72;;;14.28;76.60
28354;BME280;15603;50.878;8.036;2023-06-14T01:16:58;146631.53;;;14.23;76.15
28354;BME280;15603;50.878;8.036;2023-06-14T01:19:29;146672.97;;;14.41;76.83
28354;BME280;15603;50.878;8.036;2023-06-14T01:22:00;146663.22;;;14.37;77.21
28354;BME280;15603;50.878;8.036;2023-06-14T01:24:28;146677.81;;;14.43;77.01
28354;BME280;15603;50.878;8.036;2023-06-14T01:26:59;146646.13;;;14.29;77.14
28354;BME280;15603;50.878;8.036;2023-06-14T01:29:28;146637.59;;;14.26;77.79
28354;BME280;15603;50.878;8.036;2023-06-14T01:32:00;146658.34;;;14.34;78.08
28354;BME280;15603;50.878;8.036;2023-06-14T01:34:30;146654.69;;;14.33;78.12
28354;BME280;15603;50.878;8.036;2023-06-14T01:37:00;146627.88;;;14.22;77.79
28354;BME280;15603;50.878;8.036;2023-06-14T01:39:28;146625.44;;;14.21;77.89
28354;BME280;15603;50.878;8.036;2023-06-14T01:41:55;146616.91;;;14.17;78.76
28354;BME280;15603;50.878;8.036;2023-06-14T01:44:23;146626.66;;;14.21;78.54
28354;BME280;15603;50.878;8.036;2023-06-14T01:46:50;146612.03;;;14.15;79.55
28354;BME280;15603;50.878;8.036;2023-06-14T01:49:18;146613.25;;;14.16;79.39
28354;BME280;15603;50.878;8.036;2023-06-14T01:51:45;146593.78;;;14.07;80.65
28354;BME280;15603;50.878;8.036;2023-06-14T01:54:14;146587.66;;;14.05;79.96
28354;BME280;15603;50.878;8.036;2023-06-14T01:56:42;146592.56;;;14.07;79.21
28354;BME280;15603;50.878;8.036;2023-06-14T01:59:09;146568.16;;;13.97;77.33
28354;BME280;15603;50.878;8.036;2023-06-14T02:01:37;146631.53;;;14.23;76.82
28354;BME280;15603;50.878;8.036;2023-06-14T02:04:05;146658.34;;;14.34;73.85
28354;BME280;15603;50.878;8.036;2023-06-14T02:06:33;146677.81;;;14.43;74.28
28354;BME280;15603;50.878;8.036;2023-06-14T02:09:01;146714.44;;;14.58;72.94
28354;BME280;15603;50.878;8.036;2023-06-14T02:11:30;146748.59;;;14.72;71.31
28354;BME280;15603;50.878;8.036;2023-06-14T02:13:57;146677.81;;;14.43;72.42
28354;BME280;15603;50.878;8.036;2023-06-14T02:16:26;146663.22;;;14.37;72.61
28354;BME280;15603;50.878;8.036;2023-06-14T02:18:55;146626.66;;;14.21;75.59
28354;BME280;15603;50.878;8.036;2023-06-14T02:21:23;146597.44;;;14.09;76.71
28354;BME280;15603;50.878;8.036;2023-06-14T02:23:50;146590.09;;;14.06;76.55
28354;BME280;15603;50.878;8.036;2023-06-14T02:26:17;146582.78;;;14.03;75.45
28354;BME280;15603;50.878;8.036;2023-06-14T02:28:44;146490.22;;;13.64;77.05
28354;BME280;15603;50.878;8.036;2023-06-14T02:31:13;146575.50;;;14.00;76.64
28354;BME280;15603;50.878;8.036;2023-06-14T02:33:40;146585.22;;;14.04;75.98
28354;BME280;15603;50.878;8.036;2023-06-14T02:36:07;146579.16;;;14.01;74.88
28354;BME280;15603;50.878;8.036;2023-06-14T02:38:34;146559.63;;;13.93;71.56
28354;BME280;15603;50.878;8.036;2023-06-14T02:41:01;146582.78;;;14.03;73.54
28354;BME280;15603;50.878;8.036;2023-06-14T02:43:29;146642.47;;;14.28;70.36
28354;BME280;15603;50.878;8.036;2023-06-14T02:45:58;146619.34;;;14.18;70.88
28354;BME280;15603;50.878;8.036;2023-06-14T02:48:25;146602.31;;;14.11;71.30
28354;BME280;15603;50.878;8.036;2023-06-14T02:50:52;146568.16;;;13.97;74.26
28354;BME280;15603;50.878;8.036;2023-06-14T02:53:19;146575.50;;;14.00;73.14
28354;BME280;15603;50.878;8.036;2023-06-14T02:55:47;146590.09;;;14.06;72.12
28354;BME280;15603;50.878;8.036;2023-06-14T02:58:17;146570.63;;;13.98;74.43
28354;BME280;15603;50.878;8.036;2023-06-14T03:00:45;146529.22;;;13.80;75.34
28354;BME280;15603;50.878;8.036;2023-06-14T03:03:12;146520.69;;;13.77;74.08
28354;BME280;15603;50.878;8.036;2023-06-14T03:05:50;146524.34;;;13.78;75.46
28354;BME280;15603;50.878;8.036;2023-06-14T03:08:22;146531.63;;;13.81;73.02
28354;BME280;15603;50.878;8.036;2023-06-14T03:10:56;146537.75;;;13.84;72.89
28354;BME280;15603;50.878;8.036;2023-06-14T03:13:24;146487.81;;;13.63;72.55
28354;BME280;15603;50.878;8.036;2023-06-14T03:15:51;146514.56;;;13.74;75.00
28354;BME280;15603;50.878;8.036;2023-06-14T03:18:21;146487.81;;;13.63;76.48
28354;BME280;15603;50.878;8.036;2023-06-14T03:20:53;146490.22;;;13.64;75.90
28354;BME280;15603;50.878;8.036;2023-06-14T03:23:21;146470.75;;;13.55;77.50
28354;BME280;15603;50.878;8.036;2023-06-14T03:25:49;146453.66;;;13.48;78.69
28354;BME280;15603;50.878;8.036;2023-06-14T03:28:17;146431.75;;;13.39;77.47
28354;BME280;15603;50.878;8.036;2023-06-14T03:30:45;146431.75;;;13.39;77.82
28354;BME280;15603;50.878;8.036;2023-06-14T03:33:13;146329.44;;;12.96;77.50
28354;BME280;15603;50.878;8.036;2023-06-14T03:35:44;146378.16;;;13.16;77.78
28354;BME280;15603;50.878;8.036;2023-06-14T03:38:13;146431.75;;;13.39;76.57
28354;BME280;15603;50.878;8.036;2023-06-14T03:40:40;146465.88;;;13.53;75.73
28354;BME280;15603;50.878;8.036;2023-06-14T03:43:07;146441.47;;;13.43;76.76
28354;BME280;15603;50.878;8.036;2023-06-14T03:45:34;146417.13;;;13.33;76.32
28354;BME280;15603;50.878;8.036;2023-06-14T03:48:02;146406.16;;;13.28;76.38
28354;BME280;15603;50.878;8.036;2023-06-14T03:50:31;146433.00;;;13.40;76.20
28354;BME280;15603;50.878;8.036;2023-06-14T03:53:00;146397.63;;;13.25;78.46
28354;BME280;15603;50.878;8.036;2023-06-14T03:55:28;146426.88;;;13.37;77.29
28354;BME280;15603;50.878;8.036;2023-06-14T03:58:01;146441.47;;;13.43;76.54
28354;BME280;15603;50.878;8.036;2023-06-14T04:00:29;146422.00;;;13.35;78.17
28354;BME280;15603;50.878;8.036;2023-06-14T04:02:58;146453.66;;;13.48;77.65
28354;BME280;15603;50.878;8.036;2023-06-14T04:05:25;146481.69;;;13.60;76.47
28354;BME280;15603;50.878;8.036;2023-06-14T04:07:56;146512.16;;;13.73;74.37
28354;BME280;15603;50.878;8.036;2023-06-14T04:10:24;146541.38;;;13.85;75.24
28354;BME280;15603;50.878;8.036;2023-06-14T04:12:52;146499.94;;;13.68;75.17
28354;BME280;15603;50.878;8.036;2023-06-14T04:15:19;146582.78;;;14.03;73.96
28354;BME280;15603;50.878;8.036;2023-06-14T04:17:51;146601.06;;;14.10;74.29
28354;BME280;15603;50.878;8.036;2023-06-14T04:20:21;146607.19;;;14.13;75.61
28354;BME280;15603;50.878;8.036;2023-06-14T04:22:49;146602.31;;;14.11;77.26
28354;BME280;15603;50.878;8.036;2023-06-14T04:25:18;146601.06;;;14.10;77.56
28354;BME280;15603;50.878;8.036;2023-06-14T04:27:51;146587.66;;;14.05;76.80
28354;BME280;15603;50.878;8.036;2023-06-14T04:30:19;146643.72;;;14.28;75.19
28354;BME280;15603;50.878;8.036;2023-06-14T04:32:50;146658.34;;;14.34;76.54
28354;BME280;15603;50.878;8.036;2023-06-14T04:35:22;146687.56;;;14.47;77.04
28354;BME280;15603;50.878;8.036;2023-06-14T04:37:51;146694.91;;;14.50;75.87
28354;BME280;15603;50.878;8.036;2023-06-14T04:40:20;146725.44;;;14.63;75.38
28354;BME280;15603;50.878;8.036;2023-06-14T04:42:48;146741.25;;;14.69;77.05
28354;BME280;15603;50.878;8.036;2023-06-14T04:45:17;146787.56;;;14.89;74.83
28354;BME280;15603;50.878;8.036;2023-06-14T04:47:46;146762.00;;;14.78;73.01
28354;BME280;15603;50.878;8.036;2023-06-14T04:50:13;146881.47;;;15.28;69.24
28354;BME280;15603;50.878;8.036;2023-06-14T04:52:41;146908.28;;;15.40;68.52
28354;BME280;15603;50.878;8.036;2023-06-14T04:55:11;146938.75;;;15.52;66.50
28354;BME280;15603;50.878;8.036;2023-06-14T04:57:38;146965.59;;;15.64;66.13
28354;BME280;15603;50.878;8.036;2023-06-14T05:00:08;146963.16;;;15.63;64.77
28354;BME280;15603;50.878;8.036;2023-06-14T05:02:39;146990.00;;;15.74;71.24
28354;BME280;15603;50.878;8.036;2023-06-14T05:05:08;146997.34;;;15.77;71.07
28354;BME280;15603;50.878;8.036;2023-06-14T05:07:36;147024.19;;;15.88;69.21
28354;BME280;15603;50.878;8.036;2023-06-14T05:10:08;147029.06;;;15.90;70.52
28354;BME280;15603;50.878;8.036;2023-06-14T05:12:35;147064.44;;;16.05;69.36
28354;BME280;15603;50.878;8.036;2023-06-14T05:15:04;147087.63;;;16.15;65.51
28354;BME280;15603;50.878;8.036;2023-06-14T05:17:31;147116.88;;;16.27;66.33
28354;BME280;15603;50.878;8.036;2023-06-14T05:20:00;147130.31;;;16.33;65.08
28354;BME280;15603;50.878;8.036;2023-06-14T05:22:27;147083.97;;;16.14;64.80
28354;BME280;15603;50.878;8.036;2023-06-14T05:24:54;147194.97;;;16.60;67.34
28354;BME280;15603;50.878;8.036;2023-06-14T05:27:21;147236.47;;;16.78;61.67
28354;BME280;15603;50.878;8.036;2023-06-14T05:29:48;147245.03;;;16.81;61.75
28354;BME280;15603;50.878;8.036;2023-06-14T05:32:16;147295.13;;;17.02;59.80
28354;BME280;15603;50.878;8.036;2023-06-14T05:34:44;147304.88;;;17.06;58.17
28354;BME280;15603;50.878;8.036;2023-06-14T05:37:11;147329.31;;;17.17;56.18
28354;BME280;15603;50.878;8.036;2023-06-14T05:39:38;147343.97;;;17.23;56.21
28354;BME280;15603;50.878;8.036;2023-06-14T05:42:06;147379.34;;;17.38;55.24
28354;BME280;15603;50.878;8.036;2023-06-14T05:44:33;147380.59;;;17.38;54.96
28354;BME280;15603;50.878;8.036;2023-06-14T05:47:00;147384.25;;;17.40;54.09
28354;BME280;15603;50.878;8.036;2023-06-14T05:49:27;147387.88;;;17.41;54.62
28354;BME280;15603;50.878;8.036;2023-06-14T05:51:54;147336.63;;;17.20;54.36
28354;BME280;15603;50.878;8.036;2023-06-14T05:54:21;147405.00;;;17.49;54.94
28354;BME280;15603;50.878;8.036;2023-06-14T05:56:48;147407.47;;;17.50;54.80
28354;BME280;15603;50.878;8.036;2023-06-14T05:59:16;147483.13;;;17.81;55.22
28354;BME280;15603;50.878;8.036;2023-06-14T06:01:43;147500.28;;;17.89;53.97
28354;BME280;15603;50.878;8.036;2023-06-14T06:04:11;147549.16;;;18.09;54.18
28354;BME280;15603;50.878;8.036;2023-06-14T06:06:38;147561.34;;;18.14;53.53
28354;BME280;15603;50.878;8.036;2023-06-14T06:09:07;147561.34;;;18.14;53.06
28354;BME280;15603;50.878;8.036;2023-06-14T06:11:34;147563.81;;;18.15;52.04
28354;BME280;15603;50.878;8.036;2023-06-14T06:14:18;147595.59;;;18.29;52.70
28354;BME280;15603;50.878;8.036;2023-06-14T06:16:46;147609.03;;;18.34;51.89
28354;BME280;15603;50.878;8.036;2023-06-14T06:19:13;147602.88;;;18.32;51.26
28354;BME280;15603;50.878;8.036;2023-06-14T06:21:40;147551.59;;;18.10;51.35
28354;BME280;15603;50.878;8.036;2023-06-14T06:24:07;147556.47;;;18.12;51.36
28354;BME280;15603;50.878;8.036;2023-06-14T06:26:35;147536.94;;;18.04;51.28
28354;BME280;15603;50.878;8.036;2023-06-14T06:29:03;147442.84;;;17.64;51.86
28354;BME280;15603;50.878;8.036;2023-06-14T06:31:30;147549.16;;;18.09;51.35
28354;BME280;15603;50.878;8.036;2023-06-14T06:33:57;147567.50;;;18.17;52.03
28354;BME280;15603;50.878;8.036;2023-06-14T06:36:25;147610.22;;;18.35;51.22
28354;BME280;15603;50.878;8.036;2023-06-14T06:38:52;147593.13;;;18.28;51.58
28354;BME280;15603;50.878;8.036;2023-06-14T06:41:19;147593.13;;;18.28;50.57
28354;BME280;15603;50.878;8.036;2023-06-14T06:43:46;147507.59;;;17.92;51.82
28354;BME280;15603;50.878;8.036;2023-06-14T06:46:16;147580.88;;;18.22;51.50
28354;BME280;15603;50.878;8.036;2023-06-14T06:48:46;147618.78;;;18.38;50.67
28354;BME280;15603;50.878;8.036;2023-06-14T06:51:13;147626.09;;;18.41;51.19
28354;BME280;15603;50.878;8.036;2023-06-14T06:53:42;147634.66;;;18.45;51.18
28354;BME280;15603;50.878;8.036;2023-06-14T06:56:16;147688.44;;;18.68;50.82
28354;BME280;15603;50.878;8.036;2023-06-14T06:58:43;147710.44;;;18.77;51.25
28354;BME280;15603;50.878;8.036;2023-06-14T07:01:10;147692.09;;;18.69;50.22
28354;BME280;15603;50.878;8.036;2023-06-14T07:03:38;147661.53;;;18.56;49.61
28354;BME280;15603;50.878;8.036;2023-06-14T07:06:07;147681.06;;;18.64;50.27
28354;BME280;15603;50.878;8.036;2023-06-14T07:08:36;147720.25;;;18.81;49.96
28354;BME280;15603;50.878;8.036;2023-06-14T07:11:05;147743.47;;;18.91;48.84
28354;BME280;15603;50.878;8.036;2023-06-14T07:13:32;147715.31;;;18.79;50.31
28354;BME280;15603;50.878;8.036;2023-06-14T07:16:00;147734.91;;;18.87;49.53
28354;BME280;15603;50.878;8.036;2023-06-14T07:18:28;147752.03;;;18.94;49.81
28354;BME280;15603;50.878;8.036;2023-06-14T07:20:56;147808.22;;;19.18;49.25
28354;BME280;15603;50.878;8.036;2023-06-14T07:23:24;147800.88;;;19.15;49.23
28354;BME280;15603;50.878;8.036;2023-06-14T07:25:52;147786.22;;;19.09;48.45
28354;BME280;15603;50.878;8.036;2023-06-14T07:28:19;147781.34;;;19.07;48.91
28354;BME280;15603;50.878;8.036;2023-06-14T07:30:46;147781.34;;;19.07;48.87
28354;BME280;15603;50.878;8.036;2023-06-14T07:33:15;147774.03;;;19.03;49.58
28354;BME280;15603;50.878;8.036;2023-06-14T07:35:42;147766.69;;;19.00;49.52
28354;BME280;15603;50.878;8.036;2023-06-14T07:38:09;147737.38;;;18.88;49.38
28354;BME280;15603;50.878;8.036;2023-06-14T07:40:36;147732.47;;;18.86;49.43
28354;BME280;15603;50.878;8.036;2023-06-14T07:43:04;147810.69;;;19.19;49.92
28354;BME280;15603;50.878;8.036;2023-06-14T07:45:31;147794.78;;;19.12;49.18
28354;BME280;15603;50.878;8.036;2023-06-14T07:47:58;147820.47;;;19.23;48.55
28354;BME280;15603;50.878;8.036;2023-06-14T07:50:25;147837.53;;;19.30;48.84
28354;BME280;15603;50.878;8.036;2023-06-14T07:52:52;147846.13;;;19.34;49.05
28354;BME280;15603;50.878;8.036;2023-06-14T07:55:20;147862.03;;;19.40;48.69
28354;BME280;15603;50.878;8.036;2023-06-14T07:57:47;147882.78;;;19.49;49.89
28354;BME280;15603;50.878;8.036;2023-06-14T08:00:15;147941.53;;;19.74;48.16
28354;BME280;15603;50.878;8.036;2023-06-14T08:02:43;147887.69;;;19.51;47.29
28354;BME280;15603;50.878;8.036;2023-06-14T08:05:11;147940.31;;;19.73;48.13
28354;BME280;15603;50.878;8.036;2023-06-14T08:07:39;147935.38;;;19.71;46.70
28354;BME280;15603;50.878;8.036;2023-06-14T08:10:07;147854.69;;;19.37;48.63
28354;BME280;15603;50.878;8.036;2023-06-14T08:12:35;147907.28;;;19.59;46.85
28354;BME280;15603;50.878;8.036;2023-06-14T08:15:04;147855.88;;;19.38;45.91
28354;BME280;15603;50.878;8.036;2023-06-14T08:17:42;147913.38;;;19.62;44.46
28354;BME280;15603;50.878;8.036;2023-06-14T08:20:10;147923.16;;;19.66;44.96
28354;BME280;15603;50.878;8.036;2023-06-14T08:22:38;147920.72;;;19.65;45.10
28354;BME280;15603;50.878;8.036;2023-06-14T08:25:07;147930.50;;;19.69;44.46
28354;BME280;15603;50.878;8.036;2023-06-14T08:27:34;147879.16;;;19.48;44.92
28354;BME280;15603;50.878;8.036;2023-06-14T08:30:02;147875.47;;;19.46;44.17
28354;BME280;15603;50.878;8.036;2023-06-14T08:32:30;147930.50;;;19.69;44.82
28354;BME280;15603;50.878;8.036;2023-06-14T08:34:57;147953.78;;;19.79;44.94
28354;BME280;15603;50.878;8.036;2023-06-14T08:37:32;147937.84;;;19.72;44.79
28354;BME280;15603;50.878;8.036;2023-06-14T08:40:00;147991.66;;;19.95;45.40
28354;BME280;15603;50.878;8.036;2023-06-14T08:42:31;148023.47;;;20.08;43.63
28354;BME280;15603;50.878;8.036;2023-06-14T08:44:59;147957.44;;;19.80;43.85
28354;BME280;15603;50.878;8.036;2023-06-14T08:47:27;148033.25;;;20.12;45.01
28354;BME280;15603;50.878;8.036;2023-06-14T08:49:57;148051.59;;;20.20;44.35
28354;BME280;15603;50.878;8.036;2023-06-14T08:52:27;148106.63;;;20.43;44.67
28354;BME280;15603;50.878;8.036;2023-06-14T08:54:57;148094.38;;;20.38;44.82
28354;BME280;15603;50.878;8.036;2023-06-14T08:57:24;148050.38;;;20.19;43.66
28354;BME280;15603;50.878;8.036;2023-06-14T08:59:52;148030.81;;;20.11;44.16
28354;BME280;15603;50.878;8.036;2023-06-14T09:02:23;148050.38;;;20.19;43.76
28354;BME280;15603;50.878;8.036;2023-06-14T09:04:53;148098.06;;;20.39;43.98
28354;BME280;15603;50.878;8.036;2023-06-14T09:07:20;148112.72;;;20.46;43.91
28354;BME280;15603;50.878;8.036;2023-06-14T09:09:47;148113.97;;;20.46;43.57
28354;BME280;15603;50.878;8.036;2023-06-14T09:12:32;148117.66;;;20.48;43.43
28354;BME280;15603;50.878;8.036;2023-06-14T09:14:59;148140.91;;;20.57;42.99
28354;BME280;15603;50.878;8.036;2023-06-14T09:17:26;148159.31;;;20.65;42.83
28354;BME280;15603;50.878;8.036;2023-06-14T09:19:55;148148.25;;;20.61;42.93
28354;BME280;15603;50.878;8.036;2023-06-14T09:22:22;148155.63;;;20.64;41.91
28354;BME280;15603;50.878;8.036;2023-06-14T09:24:49;148122.56;;;20.50;41.65
28354;BME280;15603;50.878;8.036;2023-06-14T09:27:17;148138.44;;;20.56;42.01
28354;BME280;15603;50.878;8.036;2023-06-14T09:29:44;148198.44;;;20.82;41.01
28354;BME280;15603;50.878;8.036;2023-06-14T09:32:11;148110.31;;;20.45;41.58
28354;BME280;15603;50.878;8.036;2023-06-14T09:34:39;148180.06;;;20.74;41.91
28354;BME280;15603;50.878;8.036;2023-06-14T09:37:06;148203.31;;;20.84;41.84
28354;BME280;15603;50.878;8.036;2023-06-14T09:39:34;148202.09;;;20.83;41.45
28354;BME280;15603;50.878;8.036;2023-06-14T09:42:02;148184.97;;;20.76;41.11
28354;BME280;15603;50.878;8.036;2023-06-14T09:44:48;148094.38;;;20.38;41.38
28354;BME280;15603;50.878;8.036;2023-06-14T09:47:16;148067.50;;;20.27;41.78
28354;BME280;15603;50.878;8.036;2023-06-14T09:49:44;148074.81;;;20.30;42.63
28354;BME280;15603;50.878;8.036;2023-06-14T09:52:14;148170.28;;;20.70;43.43
28354;BME280;15603;50.878;8.036;2023-06-14T09:54:43;148207.00;;;20.85;42.77
28354;BME280;15603;50.878;8.036;2023-06-14T09:57:16;148241.22;;;20.99;42.21
28354;BME280;15603;50.878;8.036;2023-06-14T09:59:45;148303.66;;;21.26;42.45
28354;BME280;15603;50.878;8.036;2023-06-14T10:02:34;148314.66;;;21.30;42.41
28354;BME280;15603;50.878;8.036;2023-06-14T10:05:07;148377.16;;;21.56;41.80
28354;BME280;15603;50.878;8.036;2023-06-14T10:07:40;148417.53;;;21.73;40.86
28354;BME280;15603;50.878;8.036;2023-06-14T10:10:09;148448.13;;;21.86;40.86
28354;BME280;15603;50.878;8.036;2023-06-14T10:12:37;148493.44;;;22.05;40.25
28354;BME280;15603;50.878;8.036;2023-06-14T10:15:07;148478.75;;;21.99;39.66
28354;BME280;15603;50.878;8.036;2023-06-14T10:17:47;148457.97;;;21.90;39.80
28354;BME280;15603;50.878;8.036;2023-06-14T10:20:28;148437.13;;;21.82;40.54
28354;BME280;15603;50.878;8.036;2023-06-14T10:23:07;148461.59;;;21.92;41.65
28354;BME280;15603;50.878;8.036;2023-06-14T10:25:37;148503.22;;;22.09;41.33
28354;BME280;15603;50.878;8.036;2023-06-14T10:28:20;148508.16;;;22.11;40.44
28354;BME280;15603;50.878;8.036;2023-06-14T10:31:10;148498.31;;;22.07;40.81
28354;BME280;15603;50.878;8.036;2023-06-14T10:33:50;148510.59;;;22.12;39.56
28354;BME280;15603;50.878;8.036;2023-06-14T10:39:09;148433.44;;;21.80;40.00
28354;BME280;15603;50.878;8.036;2023-06-14T10:41:38;148399.19;;;21.66;41.50
28354;BME280;15603;50.878;8.036;2023-06-14T10:46:39;148265.75;;;21.10;41.57
28354;BME280;15603;50.878;8.036;2023-06-14T10:49:09;148273.06;;;21.13;42.32
28354;BME280;15603;50.878;8.036;2023-06-14T10:51:42;148273.06;;;21.13;42.56
28354;BME280;15603;50.878;8.036;2023-06-14T10:54:13;148307.34;;;21.27;43.03
28354;BME280;15603;50.878;8.036;2023-06-14T10:56:52;148339.16;;;21.41;41.68
28354;BME280;15603;50.878;8.036;2023-06-14T10:59:20;148324.50;;;21.34;41.59
28354;BME280;15603;50.878;8.036;2023-06-14T11:02:13;148187.44;;;20.77;43.25
28354;BME280;15603;50.878;8.036;2023-06-14T11:04:50;148248.59;;;21.03;42.33
28354;BME280;15603;50.878;8.036;2023-06-14T11:07:28;148357.56;;;21.48;41.85
28354;BME280;15603;50.878;8.036;2023-06-14T11:12:38;148418.75;;;21.74;41.18
28354;BME280;15603;50.878;8.036;2023-06-14T11:15:06;148439.59;;;21.83;39.98
28354;BME280;15603;50.878;8.036;2023-06-14T11:17:34;148464.06;;;21.93;39.94
28354;BME280;15603;50.878;8.036;2023-06-14T11:20:12;148486.13;;;22.02;40.03
28354;BME280;15603;50.878;8.036;2023-06-14T11:22:49;148503.22;;;22.09;39.76
28354;BME280;15603;50.878;8.036;2023-06-14T11:25:16;148486.13;;;22.02;39.83
28354;BME280;15603;50.878;8.036;2023-06-14T11:27:45;148456.69;;;21.90;39.39
28354;BME280;15603;50.878;8.036;2023-06-14T11:30:13;148559.63;;;22.33;39.79
28354;BME280;15603;50.878;8.036;2023-06-14T11:32:40;148562.06;;;22.34;40.56
28354;BME280;15603;50.878;8.036;2023-06-14T11:35:08;148547.38;;;22.28;40.18
28354;BME280;15603;50.878;8.036;2023-06-14T11:37:36;148473.84;;;21.97;40.29
28354;BME280;15603;50.878;8.036;2023-06-14T11:40:08;148429.75;;;21.79;39.65
28354;BME280;15603;50.878;8.036;2023-06-14T11:42:36;148481.22;;;22.00;40.14
28354;BME280;15603;50.878;8.036;2023-06-14T11:45:07;148575.53;;;22.40;40.51
28354;BME280;15603;50.878;8.036;2023-06-14T11:47:37;148586.56;;;22.44;38.73
28354;BME280;15603;50.878;8.036;2023-06-14T11:50:07;148630.63;;;22.63;38.14
28354;BME280;15603;50.878;8.036;2023-06-14T11:52:38;148640.44;;;22.67;38.94
28354;BME280;15603;50.878;8.036;2023-06-14T11:55:05;148626.94;;;22.61;39.46
28354;BME280;15603;50.878;8.036;2023-06-14T11:57:34;148524.06;;;22.18;39.30
28354;BME280;15603;50.878;8.036;2023-06-14T12:00:08;148503.22;;;22.09;39.87
28354;BME280;15603;50.878;8.036;2023-06-14T12:02:39;148459.16;;;21.91;40.26
28354;BME280;15603;50.878;8.036;2023-06-14T12:05:08;148503.22;;;22.09;40.61
28354;BME280;15603;50.878;8.036;2023-06-14T12:07:37;148465.28;;;21.93;40.49
28354;BME280;15603;50.878;8.036;2023-06-14T12:10:08;148462.84;;;21.92;40.84
28354;BME280;15603;50.878;8.036;2023-06-14T12:12:37;148488.53;;;22.03;39.83
28354;BME280;15603;50.878;8.036;2023-06-14T12:15:06;148443.22;;;21.84;39.91
28354;BME280;15603;50.878;8.036;2023-06-14T12:17:35;148527.75;;;22.20;39.93
28354;BME280;15603;50.878;8.036;2023-06-14T12:20:07;148493.44;;;22.05;39.95
28354;BME280;15603;50.878;8.036;2023-06-14T12:22:52;148574.31;;;22.39;39.38
28354;BME280;15603;50.878;8.036;2023-06-14T12:25:28;148557.16;;;22.32;39.54
28354;BME280;15603;50.878;8.036;2023-06-14T12:27:59;148531.41;;;22.21;39.36
28354;BME280;15603;50.878;8.036;2023-06-14T12:30:26;148477.53;;;21.99;39.56
28354;BME280;15603;50.878;8.036;2023-06-14T12:32:54;148427.34;;;21.77;40.21
28354;BME280;15603;50.878;8.036;2023-06-14T12:35:24;148432.22;;;21.80;39.53
28354;BME280;15603;50.878;8.036;2023-06-14T12:37:51;148535.06;;;22.23;39.89
28354;BME280;15603;50.878;8.036;2023-06-14T12:40:22;148555.94;;;22.31;39.64
28354;BME280;15603;50.878;8.036;2023-06-14T12:42:49;148650.22;;;22.71;39.21
28354;BME280;15603;50.878;8.036;2023-06-14T12:45:16;148826.72;;;23.45;36.55
28354;BME280;15603;50.878;8.036;2023-06-14T12:47:44;148875.75;;;23.65;35.80
28354;BME280;15603;50.878;8.036;2023-06-14T12:50:11;148901.44;;;23.76;35.94
28354;BME280;15603;50.878;8.036;2023-06-14T12:52:38;148998.31;;;24.17;36.13
28354;BME280;15603;50.878;8.036;2023-06-14T12:55:06;149084.19;;;24.53;35.19
28354;BME280;15603;50.878;8.036;2023-06-14T12:57:33;149140.59;;;24.76;34.36
28354;BME280;15603;50.878;8.036;2023-06-14T13:00:04;149143.06;;;24.77;34.08
28354;BME280;15603;50.878;8.036;2023-06-14T13:02:32;149036.31;;;24.33;36.21
28354;BME280;15603;50.878;8.036;2023-06-14T13:05:00;148897.75;;;23.75;35.81
28354;BME280;15603;50.878;8.036;2023-06-14T13:07:29;148786.25;;;23.28;36.01
28354;BME280;15603;50.878;8.036;2023-06-14T13:09:56;148788.75;;;23.29;36.74
28354;BME280;15603;50.878;8.036;2023-06-14T13:12:23;148778.91;;;23.25;36.22